sensor_id;sensor_type;location;lat;lon;timestamp;temperature;humidity
1137;DHT22;557;48.466;7.950;2023-07-20T00:00:02;20.30;99.90
1137;DHT22;557;48.466;7.950;2023-07-20T00:02:51;20.30;99.90
1137;DHT22;557;48.466;7.950;2023-07-20T00:05:39;20.30;99.90
1137;DHT22;557;48.466;7.950;2023-07-20T00:08:28;20.20;99.90
1137;DHT22;557;48.466;7.950;2023-07-20T00:11:15;20.10;99.90
1137;DHT22;557;48.466;7.950;2023-07-20T00:14:02;19.90;99.90
1137;DHT22;557;48.466;7.950;2023-07-20T00:16:50;19.80;99.90
1137;DHT22;557;48.466;7.950;2023-07-20T00:19:41;19.80;99.90
1137;DHT22;557;48.466;7.950;2023-07-20T00:22:28;19.70;99.90
1137;DHT22;557;48.466;7.950;2023-07-20T00:25:17;19.70;99.90
1137;DHT22;557;48.466;7.950;2023-07-20T00:28:05;19.60;62.40
1137;DHT22;557;48.466;7.950;2023-07-20T00:30:52;19.50;1.00
1137;DHT22;557;48.466;7.950;2023-07-20T00:33:39;19.50;99.90
1137;DHT22;557;48.466;7.950;2023-07-20T00:36:27;19.40;79.00
1137;DHT22;557;48.466;7.950;2023-07-20T00:39:14;19.30;1.00
1137;DHT22;557;48.466;7.950;2023-07-20T00:42:03;19.20;1.00
1137;DHT22;557;48.466;7.950;2023-07-20T00:44:51;19.10;99.90
1137;DHT22;557;48.466;7.950;2023-07-20T00:47:38;19.10;1.00
1137;DHT22;557;48.466;7.950;2023-07-20T00:50:26;19.00;1.00
1137;DHT22;557;48.466;7.950;2023-07-20T00:53:14;19.00;1.00
1137;DHT22;557;48.466;7.950;2023-07-20T00:56:02;18.80;99.90
1137;DHT22;557;48.466;7.950;2023-07-20T00:58:51;18.80;1.00
1137;DHT22;557;48.466;7.950;2023-07-20T01:01:39;18.60;99.90
1137;DHT22;557;48.466;7.950;2023-07-20T01:04:26;18.50;99.90
1137;DHT22;557;48.466;7.950;2023-07-20T01:07:19;18.50;87.40
1137;DHT22;557;48.466;7.950;2023-07-20T01:10:13;18.40;11.20
1137;DHT22;557;48.466;7.950;2023-07-20T01:13:05;18.40;1.00
1137;DHT22;557;48.466;7.950;2023-07-20T01:15:56;18.40;1.00
1137;DHT22;557;48.466;7.950;2023-07-20T01:18:45;18.40;1.00
1137;DHT22;557;48.466;7.950;2023-07-20T01:21:39;18.50;99.90
1137;DHT22;557;48.466;7.950;2023-07-20T01:24:58;18.40;99.90
1137;DHT22;557;48.466;7.950;2023-07-20T01:28:12;18.50;99.90
1137;DHT22;557;48.466;7.950;2023-07-20T01:31:19;18.40;1.00
1137;DHT22;557;48.466;7.950;2023-07-20T01:34:09;18.20;1.00
1137;DHT22;557;48.466;7.950;2023-07-20T01:36:59;18.10;99.90
1137;DHT22;557;48.466;7.950;2023-07-20T01:39:48;18.10;1.00
1137;DHT22;557;48.466;7.950;2023-07-20T01:42:35;18.10;1.00
1137;DHT22;557;48.466;7.950;2023-07-20T01:45:22;18.00;1.00
1137;DHT22;557;48.466;7.950;2023-07-20T01:48:11;17.90;1.00
1137;DHT22;557;48.466;7.950;2023-07-20T01:50:58;17.90;17.10
1137;DHT22;557;48.466;7.950;2023-07-20T01:53:45;17.90;1.00
1137;DHT22;557;48.466;7.950;2023-07-20T01:56:33;17.90;99.90
1137;DHT22;557;48.466;7.950;2023-07-20T01:59:20;17.90;1.00
1137;DHT22;557;48.466;7.950;2023-07-20T02:02:07;17.80;99.90
1137;DHT22;557;48.466;7.950;2023-07-20T02:04:56;17.80;99.90
1137;DHT22;557;48.466;7.950;2023-07-20T02:07:44;17.70;99.90
1137;DHT22;557;48.466;7.950;2023-07-20T02:10:31;17.70;99.90
1137;DHT22;557;48.466;7.950;2023-07-20T02:13:18;17.70;1.00
1137;DHT22;557;48.466;7.950;2023-07-20T02:16:06;17.70;1.00
1137;DHT22;557;48.466;7.950;2023-07-20T02:18:53;17.70;1.00
1137;DHT22;557;48.466;7.950;2023-07-20T02:21:44;17.80;1.00
1137;DHT22;557;48.466;7.950;2023-07-20T02:24:32;17.80;99.90
1137;DHT22;557;48.466;7.950;2023-07-20T02:27:19;17.70;99.90
1137;DHT22;557;48.466;7.950;2023-07-20T02:30:07;17.70;1.00
1137;DHT22;557;48.466;7.950;2023-07-20T02:32:55;17.60;1.00
1137;DHT22;557;48.466;7.950;2023-07-20T02:35:45;17.60;1.00
1137;DHT22;557;48.466;7.950;2023-07-20T02:38:34;17.70;1.00
1137;DHT22;557;48.466;7.950;2023-07-20T02:41:21;17.70;1.00
1137;DHT22;557;48.466;7.950;2023-07-20T02:44:08;17.70;1.00
1137;DHT22;557;48.466;7.950;2023-07-20T02:46:56;17.60;1.00
1137;DHT22;557;48.466;7.950;2023-07-20T02:49:43;17.60;1.00
1137;DHT22;557;48.466;7.950;2023-07-20T02:52:30;17.60;1.00
1137;DHT22;557;48.466;7.950;2023-07-20T02:55:19;17.60;1.00
1137;DHT22;557;48.466;7.950;2023-07-20T02:58:06;17.60;1.00
1137;DHT22;557;48.466;7.950;2023-07-20T03:00:54;17.60;1.00
1137;DHT22;557;48.466;7.950;2023-07-20T03:03:42;17.70;1.00
1137;DHT22;557;48.466;7.950;2023-07-20T03:06:32;17.70;1.00
1137;DHT22;557;48.466;7.950;2023-07-20T03:09:22;17.60;1.00
1137;DHT22;557;48.466;7.950;2023-07-20T03:12:11;17.50;1.00
1137;DHT22;557;48.466;7.950;2023-07-20T03:14:59;17.50;1.00
1137;DHT22;557;48.466;7.950;2023-07-20T03:17:46;17.50;1.00
1137;DHT22;557;48.466;7.950;2023-07-20T03:20:35;17.40;1.00
1137;DHT22;557;48.466;7.950;2023-07-20T03:23:23;17.40;1.00
1137;DHT22;557;48.466;7.950;2023-07-20T03:26:10;17.40;1.00
1137;DHT22;557;48.466;7.950;2023-07-20T03:28:59;17.30;1.00
1137;DHT22;557;48.466;7.950;2023-07-20T03:31:46;17.30;1.00
1137;DHT22;557;48.466;7.950;2023-07-20T03:34:34;17.30;1.00
1137;DHT22;557;48.466;7.950;2023-07-20T03:37:21;17.30;1.00
1137;DHT22;557;48.466;7.950;2023-07-20T03:40:09;17.30;1.00
1137;DHT22;557;48.466;7.950;2023-07-20T03:42:56;17.10;1.00
1137;DHT22;557;48.466;7.950;2023-07-20T03:45:45;17.10;1.00
1137;DHT22;557;48.466;7.950;2023-07-20T03:48:33;17.10;1.00
1137;DHT22;557;48.466;7.950;2023-07-20T03:51:22;17.10;1.00
1137;DHT22;557;48.466;7.950;2023-07-20T03:54:09;17.10;1.00
1137;DHT22;557;48.466;7.950;2023-07-20T03:56:56;17.10;1.00
1137;DHT22;557;48.466;7.950;2023-07-20T03:59:45;17.00;1.00
1137;DHT22;557;48.466;7.950;2023-07-20T04:02:34;17.00;1.00
1137;DHT22;557;48.466;7.950;2023-07-20T04:05:21;17.00;1.00
1137;DHT22;557;48.466;7.950;2023-07-20T04:08:08;17.00;1.00
1137;DHT22;557;48.466;7.950;2023-07-20T04:10:57;17.00;1.00
1137;DHT22;557;48.466;7.950;2023-07-20T04:13:44;17.00;1.00
1137;DHT22;557;48.466;7.950;2023-07-20T04:16:31;17.00;1.00
1137;DHT22;557;48.466;7.950;2023-07-20T04:19:20;17.00;1.00
1137;DHT22;557;48.466;7.950;2023-07-20T04:22:08;17.00;1.00
1137;DHT22;557;48.466;7.950;2023-07-20T04:24:55;17.00;1.00
1137;DHT22;557;48.466;7.950;2023-07-20T04:27:42;17.10;1.00
1137;DHT22;557;48.466;7.950;2023-07-20T04:30:30;17.10;1.00
1137;DHT22;557;48.466;7.950;2023-07-20T04:33:17;17.30;1.00
1137;DHT22;557;48.466;7.950;2023-07-20T04:36:06;17.30;1.00
1137;DHT22;557;48.466;7.950;2023-07-20T04:38:53;17.30;1.00
1137;DHT22;557;48.466;7.950;2023-07-20T04:41:41;17.30;1.00
1137;DHT22;557;48.466;7.950;2023-07-20T04:44:28;17.40;1.00
1137;DHT22;557;48.466;7.950;2023-07-20T04:47:15;17.40;1.00
1137;DHT22;557;48.466;7.950;2023-07-20T04:50:04;17.40;1.00
1137;DHT22;557;48.466;7.950;2023-07-20T04:52:53;17.40;1.00
1137;DHT22;557;48.466;7.950;2023-07-20T04:55:40;17.40;1.00
1137;DHT22;557;48.466;7.950;2023-07-20T04:58:36;17.50;1.00
1137;DHT22;557;48.466;7.950;2023-07-20T05:01:23;17.60;1.00
1137;DHT22;557;48.466;7.950;2023-07-20T05:04:12;17.70;1.00
1137;DHT22;557;48.466;7.950;2023-07-20T05:06:59;17.70;99.90
1137;DHT22;557;48.466;7.950;2023-07-20T05:09:48;17.70;1.00
1137;DHT22;557;48.466;7.950;2023-07-20T05:12:35;17.70;1.00
1137;DHT22;557;48.466;7.950;2023-07-20T05:15:23;17.80;1.00
1137;DHT22;557;48.466;7.950;2023-07-20T05:18:10;18.00;1.00
1137;DHT22;557;48.466;7.950;2023-07-20T05:20:57;18.00;99.90
1137;DHT22;557;48.466;7.950;2023-07-20T05:23:44;18.10;99.90
1137;DHT22;557;48.466;7.950;2023-07-20T05:26:33;18.20;99.90
1137;DHT22;557;48.466;7.950;2023-07-20T05:29:20;18.30;1.00
1137;DHT22;557;48.466;7.950;2023-07-20T05:32:08;18.40;1.00
1137;DHT22;557;48.466;7.950;2023-07-20T05:34:56;18.50;1.00
1137;DHT22;557;48.466;7.950;2023-07-20T05:37:43;18.60;1.00
1137;DHT22;557;48.466;7.950;2023-07-20T05:40:31;18.60;99.90
1137;DHT22;557;48.466;7.950;2023-07-20T05:43:19;18.50;1.00
1137;DHT22;557;48.466;7.950;2023-07-20T05:46:07;18.60;1.00
1137;DHT22;557;48.466;7.950;2023-07-20T05:48:54;18.70;99.90
1137;DHT22;557;48.466;7.950;2023-07-20T05:51:41;18.80;99.90
1137;DHT22;557;48.466;7.950;2023-07-20T05:54:29;19.00;1.00
1137;DHT22;557;48.466;7.950;2023-07-20T05:57:16;19.20;99.90
1137;DHT22;557;48.466;7.950;2023-07-20T06:00:07;19.30;1.00
1137;DHT22;557;48.466;7.950;2023-07-20T06:02:54;19.40;1.00
1137;DHT22;557;48.466;7.950;2023-07-20T06:05:42;19.50;99.90
1137;DHT22;557;48.466;7.950;2023-07-20T06:08:30;19.60;1.00
1137;DHT22;557;48.466;7.950;2023-07-20T06:11:17;19.70;99.90
1137;DHT22;557;48.466;7.950;2023-07-20T06:14:04;19.70;99.90
1137;DHT22;557;48.466;7.950;2023-07-20T06:16:53;19.80;99.90
1137;DHT22;557;48.466;7.950;2023-07-20T06:19:40;20.00;99.90
1137;DHT22;557;48.466;7.950;2023-07-20T06:22:28;20.10;1.00
1137;DHT22;557;48.466;7.950;2023-07-20T06:25:15;20.10;99.90
1137;DHT22;557;48.466;7.950;2023-07-20T06:28:03;20.20;1.00
1137;DHT22;557;48.466;7.950;2023-07-20T06:30:51;20.30;99.90
1137;DHT22;557;48.466;7.950;2023-07-20T06:33:40;20.30;99.90
1137;DHT22;557;48.466;7.950;2023-07-20T06:36:27;20.50;99.90
1137;DHT22;557;48.466;7.950;2023-07-20T06:39:14;20.70;1.00
1137;DHT22;557;48.466;7.950;2023-07-20T06:42:02;20.60;1.00
1137;DHT22;557;48.466;7.950;2023-07-20T06:44:49;20.60;1.00
1137;DHT22;557;48.466;7.950;2023-07-20T06:47:38;20.70;1.00
1137;DHT22;557;48.466;7.950;2023-07-20T06:50:27;20.70;1.00
1137;DHT22;557;48.466;7.950;2023-07-20T06:53:14;20.90;1.00
1137;DHT22;557;48.466;7.950;2023-07-20T06:56:01;21.10;1.00
1137;DHT22;557;48.466;7.950;2023-07-20T06:58:49;21.10;1.00
1137;DHT22;557;48.466;7.950;2023-07-20T07:01:37;21.10;99.90
1137;DHT22;557;48.466;7.950;2023-07-20T07:04:25;21.10;99.90
1137;DHT22;557;48.466;7.950;2023-07-20T07:07:15;21.40;99.90
1137;DHT22;557;48.466;7.950;2023-07-20T07:10:03;21.70;99.90
1137;DHT22;557;48.466;7.950;2023-07-20T07:12:51;21.70;99.90
1137;DHT22;557;48.466;7.950;2023-07-20T07:15:38;21.90;99.90
1137;DHT22;557;48.466;7.950;2023-07-20T07:18:25;22.10;99.90
1137;DHT22;557;48.466;7.950;2023-07-20T07:21:13;22.50;99.90
1137;DHT22;557;48.466;7.950;2023-07-20T07:24:01;22.50;99.90
1137;DHT22;557;48.466;7.950;2023-07-20T07:26:49;22.50;99.90
1137;DHT22;557;48.466;7.950;2023-07-20T07:29:37;22.90;99.90
1137;DHT22;557;48.466;7.950;2023-07-20T07:32:24;23.10;99.90
1137;DHT22;557;48.466;7.950;2023-07-20T07:35:12;23.30;99.90
1137;DHT22;557;48.466;7.950;2023-07-20T07:37:59;23.50;99.90
1137;DHT22;557;48.466;7.950;2023-07-20T07:40:48;23.50;99.90
1137;DHT22;557;48.466;7.950;2023-07-20T07:43:35;23.40;99.90
1137;DHT22;557;48.466;7.950;2023-07-20T07:46:24;23.50;99.90
1137;DHT22;557;48.466;7.950;2023-07-20T07:49:11;23.50;99.90
1137;DHT22;557;48.466;7.950;2023-07-20T07:51:58;23.50;99.90
1137;DHT22;557;48.466;7.950;2023-07-20T07:54:48;23.90;99.90
1137;DHT22;557;48.466;7.950;2023-07-20T07:57:37;24.10;99.90
1137;DHT22;557;48.466;7.950;2023-07-20T08:00:24;24.30;99.90
1137;DHT22;557;48.466;7.950;2023-07-20T08:03:11;24.60;99.90
1137;DHT22;557;48.466;7.950;2023-07-20T08:05:59;25.00;99.90
1137;DHT22;557;48.466;7.950;2023-07-20T08:08:46;25.30;99.90
1137;DHT22;557;48.466;7.950;2023-07-20T08:11:34;24.60;99.90
1137;DHT22;557;48.466;7.950;2023-07-20T08:14:22;24.20;99.90
1137;DHT22;557;48.466;7.950;2023-07-20T08:17:10;24.50;99.90
1137;DHT22;557;48.466;7.950;2023-07-20T08:19:57;24.70;99.90
1137;DHT22;557;48.466;7.950;2023-07-20T08:22:49;24.80;99.90
1137;DHT22;557;48.466;7.950;2023-07-20T08:25:37;25.00;99.90
1137;DHT22;557;48.466;7.950;2023-07-20T08:28:27;25.50;99.90
1137;DHT22;557;48.466;7.950;2023-07-20T08:31:16;25.60;99.90
1137;DHT22;557;48.466;7.950;2023-07-20T08:34:04;25.40;93.30
1137;DHT22;557;48.466;7.950;2023-07-20T08:36:51;25.30;78.70
1137;DHT22;557;48.466;7.950;2023-07-20T08:39:38;25.10;82.10
1137;DHT22;557;48.466;7.950;2023-07-20T08:42:26;25.10;61.70
1137;DHT22;557;48.466;7.950;2023-07-20T08:45:16;25.00;56.40
1137;DHT22;557;48.466;7.950;2023-07-20T08:48:06;25.40;51.80
1137;DHT22;557;48.466;7.950;2023-07-20T08:50:54;25.60;51.80
1137;DHT22;557;48.466;7.950;2023-07-20T08:53:43;25.30;44.10
1137;DHT22;557;48.466;7.950;2023-07-20T08:56:34;25.20;40.90
1137;DHT22;557;48.466;7.950;2023-07-20T08:59:23;24.70;36.10
1137;DHT22;557;48.466;7.950;2023-07-20T09:02:16;24.70;32.60
1137;DHT22;557;48.466;7.950;2023-07-20T09:05:08;24.70;30.30
1137;DHT22;557;48.466;7.950;2023-07-20T09:07:55;24.80;30.30
1137;DHT22;557;48.466;7.950;2023-07-20T09:10:43;25.10;27.50
1137;DHT22;557;48.466;7.950;2023-07-20T09:13:30;25.70;25.60
1137;DHT22;557;48.466;7.950;2023-07-20T09:16:19;25.80;22.60
1137;DHT22;557;48.466;7.950;2023-07-20T09:19:06;25.80;19.20
1137;DHT22;557;48.466;7.950;2023-07-20T09:21:55;26.10;18.50
1137;DHT22;557;48.466;7.950;2023-07-20T09:24:43;26.10;19.70
1137;DHT22;557;48.466;7.950;2023-07-20T09:27:35;26.30;35.50
1137;DHT22;557;48.466;7.950;2023-07-20T09:30:25;26.90;22.70
1137;DHT22;557;48.466;7.950;2023-07-20T09:33:18;26.90;8.90
1137;DHT22;557;48.466;7.950;2023-07-20T09:36:06;26.80;18.70
1137;DHT22;557;48.466;7.950;2023-07-20T09:38:55;26.50;7.90
1137;DHT22;557;48.466;7.950;2023-07-20T09:41:42;26.80;10.10
1137;DHT22;557;48.466;7.950;2023-07-20T09:44:29;27.50;16.20
1137;DHT22;557;48.466;7.950;2023-07-20T09:47:22;27.00;5.10
1137;DHT22;557;48.466;7.950;2023-07-20T09:50:09;25.90;1.00
1137;DHT22;557;48.466;7.950;2023-07-20T09:52:58;25.40;1.00
1137;DHT22;557;48.466;7.950;2023-07-20T09:55:49;25.30;1.00
1137;DHT22;557;48.466;7.950;2023-07-20T09:58:36;25.40;1.00
1137;DHT22;557;48.466;7.950;2023-07-20T10:01:25;25.60;1.00
1137;DHT22;557;48.466;7.950;2023-07-20T10:04:16;25.50;1.00
1137;DHT22;557;48.466;7.950;2023-07-20T10:07:10;25.00;1.00
1137;DHT22;557;48.466;7.950;2023-07-20T10:09:59;25.30;1.00
1137;DHT22;557;48.466;7.950;2023-07-20T10:12:50;25.60;1.00
1137;DHT22;557;48.466;7.950;2023-07-20T10:15:45;26.20;1.00
1137;DHT22;557;48.466;7.950;2023-07-20T10:18:38;26.40;2.70
1137;DHT22;557;48.466;7.950;2023-07-20T10:21:29;26.30;1.00
1137;DHT22;557;48.466;7.950;2023-07-20T10:24:16;26.40;1.00
1137;DHT22;557;48.466;7.950;2023-07-20T10:27:05;26.20;1.00
1137;DHT22;557;48.466;7.950;2023-07-20T10:29:54;26.00;1.00
1137;DHT22;557;48.466;7.950;2023-07-20T10:32:43;26.20;1.00
1137;DHT22;557;48.466;7.950;2023-07-20T10:35:50;26.20;1.00
1137;DHT22;557;48.466;7.950;2023-07-20T10:38:39;26.60;1.00
1137;DHT22;557;48.466;7.950;2023-07-20T10:41:32;27.20;1.00
1137;DHT22;557;48.466;7.950;2023-07-20T10:44:20;26.80;1.00
1137;DHT22;557;48.466;7.950;2023-07-20T10:47:11;26.50;1.00
1137;DHT22;557;48.466;7.950;2023-07-20T10:49:59;26.60;1.00
1137;DHT22;557;48.466;7.950;2023-07-20T10:53:04;26.70;1.00
1137;DHT22;557;48.466;7.950;2023-07-20T10:56:06;27.00;1.00
1137;DHT22;557;48.466;7.950;2023-07-20T10:58:57;27.40;1.00
1137;DHT22;557;48.466;7.950;2023-07-20T11:01:46;28.50;1.00
1137;DHT22;557;48.466;7.950;2023-07-20T11:04:39;29.30;1.00
1137;DHT22;557;48.466;7.950;2023-07-20T11:07:37;28.80;1.00
1137;DHT22;557;48.466;7.950;2023-07-20T11:10:24;28.20;1.00
1137;DHT22;557;48.466;7.950;2023-07-20T11:13:19;27.90;1.00
1137;DHT22;557;48.466;7.950;2023-07-20T11:16:07;27.80;1.00
1137;DHT22;557;48.466;7.950;2023-07-20T11:18:55;27.60;1.00
1137;DHT22;557;48.466;7.950;2023-07-20T11:21:45;27.30;1.00
1137;DHT22;557;48.466;7.950;2023-07-20T11:24:33;27.50;1.00
1137;DHT22;557;48.466;7.950;2023-07-20T11:27:20;28.20;1.00
1137;DHT22;557;48.466;7.950;2023-07-20T11:30:15;29.10;1.00
1137;DHT22;557;48.466;7.950;2023-07-20T11:33:03;29.70;1.00
1137;DHT22;557;48.466;7.950;2023-07-20T11:35:51;29.80;1.00
1137;DHT22;557;48.466;7.950;2023-07-20T11:38:42;29.80;1.00
1137;DHT22;557;48.466;7.950;2023-07-20T11:41:43;29.90;1.00
1137;DHT22;557;48.466;7.950;2023-07-20T11:44:31;30.10;1.00
1137;DHT22;557;48.466;7.950;2023-07-20T11:47:18;30.10;1.00
1137;DHT22;557;48.466;7.950;2023-07-20T11:50:06;30.40;1.00
1137;DHT22;557;48.466;7.950;2023-07-20T11:52:54;30.60;1.00
1137;DHT22;557;48.466;7.950;2023-07-20T11:55:43;30.80;1.00
1137;DHT22;557;48.466;7.950;2023-07-20T11:58:31;31.00;1.00
1137;DHT22;557;48.466;7.950;2023-07-20T12:01:18;31.10;1.00
1137;DHT22;557;48.466;7.950;2023-07-20T12:04:06;30.70;1.00
1137;DHT22;557;48.466;7.950;2023-07-20T12:06:53;30.40;1.00
1137;DHT22;557;48.466;7.950;2023-07-20T12:09:43;29.80;1.00
1137;DHT22;557;48.466;7.950;2023-07-20T12:12:33;29.60;1.00
1137;DHT22;557;48.466;7.950;2023-07-20T12:15:24;30.10;1.00
1137;DHT22;557;48.466;7.950;2023-07-20T12:18:12;30.30;1.00
1137;DHT22;557;48.466;7.950;2023-07-20T12:20:59;30.80;1.00
1137;DHT22;557;48.466;7.950;2023-07-20T12:23:46;31.10;1.00
1137;DHT22;557;48.466;7.950;2023-07-20T12:26:34;31.30;1.00
1137;DHT22;557;48.466;7.950;2023-07-20T12:29:23;31.80;1.00
1137;DHT22;557;48.466;7.950;2023-07-20T12:32:10;32.50;1.00
1137;DHT22;557;48.466;7.950;2023-07-20T12:34:58;32.90;1.00
1137;DHT22;557;48.466;7.950;2023-07-20T12:37:46;33.20;1.00
1137;DHT22;557;48.466;7.950;2023-07-20T12:40:35;33.30;1.00
1137;DHT22;557;48.466;7.950;2023-07-20T12:43:23;33.20;1.00
1137;DHT22;557;48.466;7.950;2023-07-20T12:46:12;32.90;1.00
1137;DHT22;557;48.466;7.950;2023-07-20T12:49:00;32.50;1.00
1137;DHT22;557;48.466;7.950;2023-07-20T12:51:47;32.60;1.00
1137;DHT22;557;48.466;7.950;2023-07-20T12:54:34;32.50;1.00
1137;DHT22;557;48.466;7.950;2023-07-20T12:57:22;32.50;1.00
1137;DHT22;557;48.466;7.950;2023-07-20T13:00:10;31.80;1.00
1137;DHT22;557;48.466;7.950;2023-07-20T13:03:00;30.80;1.00
1137;DHT22;557;48.466;7.950;2023-07-20T13:05:50;29.90;1.00
1137;DHT22;557;48.466;7.950;2023-07-20T13:08:38;29.70;1.00
1137;DHT22;557;48.466;7.950;2023-07-20T13:11:25;29.10;1.00
1137;DHT22;557;48.466;7.950;2023-07-20T13:14:13;29.40;1.00
1137;DHT22;557;48.466;7.950;2023-07-20T13:17:00;30.10;1.00
1137;DHT22;557;48.466;7.950;2023-07-20T13:19:51;30.70;1.00
1137;DHT22;557;48.466;7.950;2023-07-20T13:22:38;30.40;1.00
1137;DHT22;557;48.466;7.950;2023-07-20T13:25:26;30.70;1.00
1137;DHT22;557;48.466;7.950;2023-07-20T13:28:14;30.20;1.00
1137;DHT22;557;48.466;7.950;2023-07-20T13:31:02;30.30;1.00
1137;DHT22;557;48.466;7.950;2023-07-20T13:33:49;30.90;1.00
1137;DHT22;557;48.466;7.950;2023-07-20T13:36:38;30.40;1.00
1137;DHT22;557;48.466;7.950;2023-07-20T13:39:25;29.60;1.00
1137;DHT22;557;48.466;7.950;2023-07-20T13:42:14;29.50;1.00
1137;DHT22;557;48.466;7.950;2023-07-20T13:45:02;29.40;1.00
1137;DHT22;557;48.466;7.950;2023-07-20T13:47:49;30.30;1.00
1137;DHT22;557;48.466;7.950;2023-07-20T13:50:40;30.60;1.00
1137;DHT22;557;48.466;7.950;2023-07-20T13:53:33;30.10;1.00
1137;DHT22;557;48.466;7.950;2023-07-20T13:56:27;29.30;1.00
1137;DHT22;557;48.466;7.950;2023-07-20T13:59:15;29.80;1.00
1137;DHT22;557;48.466;7.950;2023-07-20T14:02:05;29.70;1.00
1137;DHT22;557;48.466;7.950;2023-07-20T14:04:52;29.40;1.00
1137;DHT22;557;48.466;7.950;2023-07-20T14:07:41;29.90;1.00
1137;DHT22;557;48.466;7.950;2023-07-20T14:10:30;30.40;1.00
1137;DHT22;557;48.466;7.950;2023-07-20T14:13:18;30.70;1.00
1137;DHT22;557;48.466;7.950;2023-07-20T14:16:05;31.10;1.00
1137;DHT22;557;48.466;7.950;2023-07-20T14:18:53;31.60;1.00
1137;DHT22;557;48.466;7.950;2023-07-20T14:21:40;31.80;1.00
1137;DHT22;557;48.466;7.950;2023-07-20T14:24:28;32.00;1.00
1137;DHT22;557;48.466;7.950;2023-07-20T14:27:16;32.10;1.00
1137;DHT22;557;48.466;7.950;2023-07-20T14:30:05;32.10;1.00
1137;DHT22;557;48.466;7.950;2023-07-20T14:32:52;32.30;1.00
1137;DHT22;557;48.466;7.950;2023-07-20T14:35:40;32.60;1.00
1137;DHT22;557;48.466;7.950;2023-07-20T14:38:27;32.50;1.00
1137;DHT22;557;48.466;7.950;2023-07-20T14:41:14;32.50;1.00
1137;DHT22;557;48.466;7.950;2023-07-20T14:44:03;33.10;1.00
1137;DHT22;557;48.466;7.950;2023-07-20T14:46:50;33.30;1.00
1137;DHT22;557;48.466;7.950;2023-07-20T14:49:38;33.00;1.00
1137;DHT22;557;48.466;7.950;2023-07-20T14:52:25;32.00;1.00
1137;DHT22;557;48.466;7.950;2023-07-20T14:55:13;31.20;1.00
1137;DHT22;557;48.466;7.950;2023-07-20T14:58:00;30.40;1.00
1137;DHT22;557;48.466;7.950;2023-07-20T15:00:50;29.40;1.00
1137;DHT22;557;48.466;7.950;2023-07-20T15:03:37;28.30;1.00
1137;DHT22;557;48.466;7.950;2023-07-20T15:06:24;27.90;1.00
1137;DHT22;557;48.466;7.950;2023-07-20T15:09:12;27.80;1.00
1137;DHT22;557;48.466;7.950;2023-07-20T15:11:59;27.70;1.00
1137;DHT22;557;48.466;7.950;2023-07-20T15:15:01;27.60;1.00
1137;DHT22;557;48.466;7.950;2023-07-20T15:17:50;27.60;1.00
1137;DHT22;557;48.466;7.950;2023-07-20T15:20:38;27.50;1.00
1137;DHT22;557;48.466;7.950;2023-07-20T15:23:26;27.40;1.00
1137;DHT22;557;48.466;7.950;2023-07-20T15:26:13;27.30;1.00
1137;DHT22;557;48.466;7.950;2023-07-20T15:29:01;27.40;1.00
1137;DHT22;557;48.466;7.950;2023-07-20T15:31:48;28.40;1.00
1137;DHT22;557;48.466;7.950;2023-07-20T15:34:37;29.20;1.00
1137;DHT22;557;48.466;7.950;2023-07-20T15:37:24;29.80;1.00
1137;DHT22;557;48.466;7.950;2023-07-20T15:40:12;30.40;1.00
1137;DHT22;557;48.466;7.950;2023-07-20T15:42:59;30.50;1.00
1137;DHT22;557;48.466;7.950;2023-07-20T15:45:47;30.40;1.00
1137;DHT22;557;48.466;7.950;2023-07-20T15:48:35;30.10;1.00
1137;DHT22;557;48.466;7.950;2023-07-20T15:51:24;29.90;1.00
1137;DHT22;557;48.466;7.950;2023-07-20T15:54:11;29.90;1.00
1137;DHT22;557;48.466;7.950;2023-07-20T15:57:00;30.20;1.00
1137;DHT22;557;48.466;7.950;2023-07-20T15:59:47;30.20;1.00
1137;DHT22;557;48.466;7.950;2023-07-20T16:02:35;30.00;1.00
1137;DHT22;557;48.466;7.950;2023-07-20T16:05:23;30.00;1.00
1137;DHT22;557;48.466;7.950;2023-07-20T16:08:11;30.40;1.00
1137;DHT22;557;48.466;7.950;2023-07-20T16:10:59;31.00;1.00
1137;DHT22;557;48.466;7.950;2023-07-20T16:13:46;31.50;1.00
1137;DHT22;557;48.466;7.950;2023-07-20T16:16:35;31.70;1.00
1137;DHT22;557;48.466;7.950;2023-07-20T16:19:22;31.50;1.00
1137;DHT22;557;48.466;7.950;2023-07-20T16:22:09;30.60;1.00
1137;DHT22;557;48.466;7.950;2023-07-20T16:24:59;29.70;1.00
1137;DHT22;557;48.466;7.950;2023-07-20T16:27:46;29.00;1.00
1137;DHT22;557;48.466;7.950;2023-07-20T16:30:33;28.60;1.00
1137;DHT22;557;48.466;7.950;2023-07-20T16:33:21;29.00;1.00
1137;DHT22;557;48.466;7.950;2023-07-20T16:36:09;29.20;1.00
1137;DHT22;557;48.466;7.950;2023-07-20T16:38:56;29.50;1.00
1137;DHT22;557;48.466;7.950;2023-07-20T16:41:45;29.50;1.00
1137;DHT22;557;48.466;7.950;2023-07-20T16:44:32;29.40;1.00
1137;DHT22;557;48.466;7.950;2023-07-20T16:47:19;29.10;1.00
1137;DHT22;557;48.466;7.950;2023-07-20T16:50:11;28.90;1.00
1137;DHT22;557;48.466;7.950;2023-07-20T16:52:58;28.50;1.00
1137;DHT22;557;48.466;7.950;2023-07-20T16:55:48;28.30;1.00
1137;DHT22;557;48.466;7.950;2023-07-20T16:58:38;28.30;1.00
1137;DHT22;557;48.466;7.950;2023-07-20T17:01:26;28.30;1.00
1137;DHT22;557;48.466;7.950;2023-07-20T17:04:13;28.20;1.00
1137;DHT22;557;48.466;7.950;2023-07-20T17:07:01;28.00;1.00
1137;DHT22;557;48.466;7.950;2023-07-20T17:09:49;27.80;1.00
1137;DHT22;557;48.466;7.950;2023-07-20T17:12:37;27.40;1.00
1137;DHT22;557;48.466;7.950;2023-07-20T17:15:27;27.20;1.00
1137;DHT22;557;48.466;7.950;2023-07-20T17:18:15;27.00;1.00
1137;DHT22;557;48.466;7.950;2023-07-20T17:21:05;26.80;1.00
1137;DHT22;557;48.466;7.950;2023-07-20T17:23:52;26.70;1.00
1137;DHT22;557;48.466;7.950;2023-07-20T17:26:40;26.50;1.00
1137;DHT22;557;48.466;7.950;2023-07-20T17:29:27;26.40;1.00
1137;DHT22;557;48.466;7.950;2023-07-20T17:32:16;26.40;1.00
1137;DHT22;557;48.466;7.950;2023-07-20T17:35:04;26.20;1.00
1137;DHT22;557;48.466;7.950;2023-07-20T17:37:52;26.10;1.00
1137;DHT22;557;48.466;7.950;2023-07-20T17:40:39;26.00;1.00
1137;DHT22;557;48.466;7.950;2023-07-20T17:43:28;25.90;1.00
1137;DHT22;557;48.466;7.950;2023-07-20T17:46:15;25.70;1.00
1137;DHT22;557;48.466;7.950;2023-07-20T17:49:04;25.60;1.00
1137;DHT22;557;48.466;7.950;2023-07-20T17:51:51;25.50;1.00
1137;DHT22;557;48.466;7.950;2023-07-20T17:54:39;25.40;1.00
1137;DHT22;557;48.466;7.950;2023-07-20T17:57:26;25.30;1.00
1137;DHT22;557;48.466;7.950;2023-07-20T18:00:14;25.20;1.00
1137;DHT22;557;48.466;7.950;2023-07-20T18:03:02;25.10;1.00
1137;DHT22;557;48.466;7.950;2023-07-20T18:05:50;25.00;1.00
1137;DHT22;557;48.466;7.950;2023-07-20T18:08:38;25.00;1.00
1137;DHT22;557;48.466;7.950;2023-07-20T18:11:27;24.90;1.00
1137;DHT22;557;48.466;7.950;2023-07-20T18:14:14;24.90;1.00
1137;DHT22;557;48.466;7.950;2023-07-20T18:17:01;24.90;1.00
1137;DHT22;557;48.466;7.950;2023-07-20T18:19:48;24.70;1.00
1137;DHT22;557;48.466;7.950;2023-07-20T18:22:37;24.70;1.00
1137;DHT22;557;48.466;7.950;2023-07-20T18:25:25;24.60;1.00
1137;DHT22;557;48.466;7.950;2023-07-20T18:28:12;24.60;1.00
1137;DHT22;557;48.466;7.950;2023-07-20T18:31:03;24.40;1.00
1137;DHT22;557;48.466;7.950;2023-07-20T18:33:51;24.30;1.00
1137;DHT22;557;48.466;7.950;2023-07-20T18:36:38;24.20;1.00
1137;DHT22;557;48.466;7.950;2023-07-20T18:39:27;24.20;1.00
1137;DHT22;557;48.466;7.950;2023-07-20T18:42:15;24.10;1.00
1137;DHT22;557;48.466;7.950;2023-07-20T18:45:04;24.00;1.00
1137;DHT22;557;48.466;7.950;2023-07-20T18:47:51;24.00;1.00
1137;DHT22;557;48.466;7.950;2023-07-20T18:50:40;23.90;1.00